sensor_id;sensor_type;location;lat;lon;timestamp;P1;durP1;ratioP1;P2;durP2;ratioP2
53642;SDS011;39546;45.534;12.048;2022-07-05T00:05:16;2.42;;;1.27;;
53642;SDS011;39546;45.534;12.048;2022-07-05T00:11:19;1.73;;;0.90;;
53642;SDS011;39546;45.534;12.048;2022-07-05T00:17:21;0.90;;;0.70;;
53642;SDS011;39546;45.534;12.048;2022-07-05T00:23:23;2.22;;;0.73;;
53642;SDS011;39546;45.534;12.048;2022-07-05T00:29:25;2.35;;;0.88;;
53642;SDS011;39546;45.534;12.048;2022-07-05T00:35:27;1.23;;;0.80;;
53642;SDS011;39546;45.534;12.048;2022-07-05T00:41:30;1.08;;;0.80;;
53642;SDS011;39546;45.534;12.048;2022-07-05T00:47:32;1.52;;;0.80;;
53642;SDS011;39546;45.534;12.048;2022-07-05T00:53:34;4.72;;;1.60;;
53642;SDS011;39546;45.534;12.048;2022-07-05T00:59:36;5.60;;;1.58;;
53642;SDS011;39546;45.534;12.048;2022-07-05T01:05:38;2.75;;;1.10;;
53642;SDS011;39546;45.534;12.048;2022-07-05T01:11:42;1.85;;;1.02;;
53642;SDS011;39546;45.534;12.048;2022-07-05T01:17:45;2.30;;;0.98;;
53642;SDS011;39546;45.534;12.048;2022-07-05T01:23:48;2.40;;;0.93;;
53642;SDS011;39546;45.534;12.048;2022-07-05T01:29:51;1.00;;;0.73;;
53642;SDS011;39546;45.534;12.048;2022-07-05T01:35:53;2.20;;;0.85;;
53642;SDS011;39546;45.534;12.048;2022-07-05T01:41:55;1.42;;;0.80;;
53642;SDS011;39546;45.534;12.048;2022-07-05T01:47:57;1.40;;;0.90;;
53642;SDS011;39546;45.534;12.048;2022-07-05T01:54:00;1.17;;;0.73;;
53642;SDS011;39546;45.534;12.048;2022-07-05T02:00:03;1.75;;;0.82;;
53642;SDS011;39546;45.534;12.048;2022-07-05T02:06:21;3.03;;;0.90;;
53642;SDS011;39546;45.534;12.048;2022-07-05T02:12:27;3.12;;;1.42;;
53642;SDS011;39546;45.534;12.048;2022-07-05T02:18:30;2.42;;;0.60;;
53642;SDS011;39546;45.534;12.048;2022-07-05T02:24:32;1.35;;;0.60;;
53642;SDS011;39546;45.534;12.048;2022-07-05T02:30:35;0.32;;;0.32;;
53642;SDS011;39546;45.534;12.048;2022-07-05T02:37:05;0.82;;;0.70;;
53642;SDS011;39546;45.534;12.048;2022-07-05T02:43:08;2.08;;;1.33;;
53642;SDS011;39546;45.534;12.048;2022-07-05T02:49:10;1.23;;;0.80;;
53642;SDS011;39546;45.534;12.048;2022-07-05T02:55:13;3.55;;;0.80;;
53642;SDS011;39546;45.534;12.048;2022-07-05T03:01:16;1.95;;;1.12;;
53642;SDS011;39546;45.534;12.048;2022-07-05T03:07:18;1.87;;;0.82;;
53642;SDS011;39546;45.534;12.048;2022-07-05T03:13:21;4.82;;;1.17;;
53642;SDS011;39546;45.534;12.048;2022-07-05T03:19:23;1.48;;;0.52;;
53642;SDS011;39546;45.534;12.048;2022-07-05T03:25:39;3.65;;;1.08;;
53642;SDS011;39546;45.534;12.048;2022-07-05T03:31:42;0.47;;;0.47;;
53642;SDS011;39546;45.534;12.048;2022-07-05T03:38:00;1.80;;;0.70;;
53642;SDS011;39546;45.534;12.048;2022-07-05T03:44:02;1.85;;;0.75;;
53642;SDS011;39546;45.534;12.048;2022-07-05T03:50:05;3.72;;;1.30;;
53642;SDS011;39546;45.534;12.048;2022-07-05T03:56:09;1.62;;;0.70;;
53642;SDS011;39546;45.534;12.048;2022-07-05T04:02:11;1.40;;;0.90;;
53642;SDS011;39546;45.534;12.048;2022-07-05T04:08:36;5.60;;;1.33;;
53642;SDS011;39546;45.534;12.048;2022-07-05T04:14:39;1.73;;;1.05;;
53642;SDS011;39546;45.534;12.048;2022-07-05T04:20:41;2.65;;;1.60;;
53642;SDS011;39546;45.534;12.048;2022-07-05T04:26:44;7.65;;;2.62;;
53642;SDS011;39546;45.534;12.048;2022-07-05T04:32:46;4.57;;;2.05;;
53642;SDS011;39546;45.534;12.048;2022-07-05T04:38:49;5.72;;;2.67;;
53642;SDS011;39546;45.534;12.048;2022-07-05T04:44:52;6.18;;;2.72;;
53642;SDS011;39546;45.534;12.048;2022-07-05T04:50:54;5.10;;;2.20;;
53642;SDS011;39546;45.534;12.048;2022-07-05T04:56:57;3.47;;;2.03;;
53642;SDS011;39546;45.534;12.048;2022-07-05T05:02:59;7.35;;;3.03;;
53642;SDS011;39546;45.534;12.048;2022-07-05T05:09:01;5.05;;;2.35;;
53642;SDS011;39546;45.534;12.048;2022-07-05T05:15:03;3.58;;;1.83;;
53642;SDS011;39546;45.534;12.048;2022-07-05T05:21:10;6.75;;;3.10;;
53642;SDS011;39546;45.534;12.048;2022-07-05T05:27:12;7.87;;;2.53;;
53642;SDS011;39546;45.534;12.048;2022-07-05T05:39:46;4.20;;;1.87;;
53642;SDS011;39546;45.534;12.048;2022-07-05T05:45:48;1.75;;;1.15;;
53642;SDS011;39546;45.534;12.048;2022-07-05T05:51:51;1.85;;;1.05;;
53642;SDS011;39546;45.534;12.048;2022-07-05T05:57:53;2.08;;;1.48;;
53642;SDS011;39546;45.534;12.048;2022-07-05T06:03:56;5.97;;;1.05;;
53642;SDS011;39546;45.534;12.048;2022-07-05T06:09:58;1.27;;;0.80;;
53642;SDS011;39546;45.534;12.048;2022-07-05T06:16:00;0.90;;;0.75;;
53642;SDS011;39546;45.534;12.048;2022-07-05T06:22:02;3.40;;;0.90;;
53642;SDS011;39546;45.534;12.048;2022-07-05T06:28:05;4.40;;;0.95;;
53642;SDS011;39546;45.534;12.048;2022-07-05T06:34:09;1.80;;;0.95;;
53642;SDS011;39546;45.534;12.048;2022-07-05T06:40:11;3.28;;;1.20;;
53642;SDS011;39546;45.534;12.048;2022-07-05T06:46:22;1.35;;;0.68;;
53642;SDS011;39546;45.534;12.048;2022-07-05T06:52:24;3.37;;;1.35;;
53642;SDS011;39546;45.534;12.048;2022-07-05T06:58:26;1.50;;;0.82;;
53642;SDS011;39546;45.534;12.048;2022-07-05T07:04:28;1.90;;;0.98;;
53642;SDS011;39546;45.534;12.048;2022-07-05T07:10:31;1.05;;;0.70;;
53642;SDS011;39546;45.534;12.048;2022-07-05T07:16:43;2.08;;;0.88;;
53642;SDS011;39546;45.534;12.048;2022-07-05T07:22:45;0.95;;;0.77;;
53642;SDS011;39546;45.534;12.048;2022-07-05T07:28:49;3.40;;;1.30;;
53642;SDS011;39546;45.534;12.048;2022-07-05T07:34:51;2.85;;;1.42;;
53642;SDS011;39546;45.534;12.048;2022-07-05T07:40:53;5.50;;;1.00;;
53642;SDS011;39546;45.534;12.048;2022-07-05T07:46:56;0.77;;;0.77;;
53642;SDS011;39546;45.534;12.048;2022-07-05T07:59:40;1.45;;;0.80;;
53642;SDS011;39546;45.534;12.048;2022-07-05T08:05:59;1.48;;;1.00;;
53642;SDS011;39546;45.534;12.048;2022-07-05T08:12:01;1.45;;;0.85;;
53642;SDS011;39546;45.534;12.048;2022-07-05T08:18:04;2.90;;;0.73;;
53642;SDS011;39546;45.534;12.048;2022-07-05T08:24:34;2.45;;;1.35;;
53642;SDS011;39546;45.534;12.048;2022-07-05T08:30:37;3.95;;;1.73;;
53642;SDS011;39546;45.534;12.048;2022-07-05T08:36:39;2.75;;;1.35;;
53642;SDS011;39546;45.534;12.048;2022-07-05T08:42:42;1.20;;;0.90;;
53642;SDS011;39546;45.534;12.048;2022-07-05T08:48:48;4.53;;;1.73;;
53642;SDS011;39546;45.534;12.048;2022-07-05T08:54:51;5.73;;;2.03;;
53642;SDS011;39546;45.534;12.048;2022-07-05T09:00:54;7.45;;;1.85;;
53642;SDS011;39546;45.534;12.048;2022-07-05T09:13:39;2.17;;;1.50;;
53642;SDS011;39546;45.534;12.048;2022-07-05T09:19:43;1.42;;;1.23;;
53642;SDS011;39546;45.534;12.048;2022-07-05T09:25:51;3.08;;;1.80;;
53642;SDS011;39546;45.534;12.048;2022-07-05T09:32:03;2.90;;;1.87;;
53642;SDS011;39546;45.534;12.048;2022-07-05T09:38:07;3.60;;;2.10;;
53642;SDS011;39546;45.534;12.048;2022-07-05T09:44:24;2.67;;;1.10;;
53642;SDS011;39546;45.534;12.048;2022-07-05T09:50:34;1.05;;;0.75;;
53642;SDS011;39546;45.534;12.048;2022-07-05T09:56:47;4.37;;;2.65;;
53642;SDS011;39546;45.534;12.048;2022-07-05T10:02:51;2.72;;;2.00;;
53642;SDS011;39546;45.534;12.048;2022-07-05T10:09:00;4.07;;;2.62;;
53642;SDS011;39546;45.534;12.048;2022-07-05T10:15:02;2.62;;;1.60;;
53642;SDS011;39546;45.534;12.048;2022-07-05T10:21:05;3.37;;;1.87;;
53642;SDS011;39546;45.534;12.048;2022-07-05T10:27:16;4.87;;;2.22;;
53642;SDS011;39546;45.534;12.048;2022-07-05T10:33:19;4.30;;;2.08;;
53642;SDS011;39546;45.534;12.048;2022-07-05T10:39:26;2.70;;;1.87;;
53642;SDS011;39546;45.534;12.048;2022-07-05T10:45:31;3.55;;;2.10;;
53642;SDS011;39546;45.534;12.048;2022-07-05T10:51:37;2.58;;;1.58;;
53642;SDS011;39546;45.534;12.048;2022-07-05T10:57:41;3.15;;;1.95;;
53642;SDS011;39546;45.534;12.048;2022-07-05T11:03:51;2.90;;;1.77;;
53642;SDS011;39546;45.534;12.048;2022-07-05T11:09:59;5.18;;;1.80;;
53642;SDS011;39546;45.534;12.048;2022-07-05T11:22:24;3.40;;;1.83;;
53642;SDS011;39546;45.534;12.048;2022-07-05T11:28:27;2.05;;;1.25;;
53642;SDS011;39546;45.534;12.048;2022-07-05T11:34:50;2.95;;;1.67;;
53642;SDS011;39546;45.534;12.048;2022-07-05T11:40:54;2.05;;;1.30;;
53642;SDS011;39546;45.534;12.048;2022-07-05T11:46:56;4.93;;;1.83;;
53642;SDS011;39546;45.534;12.048;2022-07-05T11:52:59;2.25;;;1.27;;
53642;SDS011;39546;45.534;12.048;2022-07-05T11:59:15;2.35;;;1.10;;
53642;SDS011;39546;45.534;12.048;2022-07-05T12:05:19;8.27;;;2.37;;
53642;SDS011;39546;45.534;12.048;2022-07-05T12:11:22;2.08;;;1.40;;
53642;SDS011;39546;45.534;12.048;2022-07-05T12:18:00;1.20;;;1.10;;
53642;SDS011;39546;45.534;12.048;2022-07-05T12:24:04;1.90;;;1.02;;
53642;SDS011;39546;45.534;12.048;2022-07-05T12:30:09;3.12;;;1.77;;
53642;SDS011;39546;45.534;12.048;2022-07-05T12:36:13;4.15;;;1.50;;
53642;SDS011;39546;45.534;12.048;2022-07-05T12:42:32;2.15;;;1.12;;
53642;SDS011;39546;45.534;12.048;2022-07-05T12:48:36;1.58;;;1.10;;
53642;SDS011;39546;45.534;12.048;2022-07-05T12:54:40;1.00;;;0.70;;
53642;SDS011;39546;45.534;12.048;2022-07-05T13:07:44;3.58;;;1.30;;
53642;SDS011;39546;45.534;12.048;2022-07-05T13:13:46;2.20;;;1.48;;
53642;SDS011;39546;45.534;12.048;2022-07-05T13:19:49;3.28;;;1.67;;
53642;SDS011;39546;45.534;12.048;2022-07-05T13:25:52;3.87;;;1.33;;
53642;SDS011;39546;45.534;12.048;2022-07-05T13:31:54;2.72;;;1.30;;
53642;SDS011;39546;45.534;12.048;2022-07-05T13:37:57;3.10;;;1.35;;
53642;SDS011;39546;45.534;12.048;2022-07-05T13:43:59;2.25;;;1.48;;
53642;SDS011;39546;45.534;12.048;2022-07-05T13:50:01;2.12;;;1.33;;
53642;SDS011;39546;45.534;12.048;2022-07-05T13:56:22;2.87;;;1.37;;
53642;SDS011;39546;45.534;12.048;2022-07-05T14:02:25;1.98;;;1.45;;
53642;SDS011;39546;45.534;12.048;2022-07-05T14:08:27;2.47;;;1.60;;
53642;SDS011;39546;45.534;12.048;2022-07-05T14:21:25;2.42;;;1.70;;
53642;SDS011;39546;45.534;12.048;2022-07-05T14:27:27;7.25;;;1.98;;
53642;SDS011;39546;45.534;12.048;2022-07-05T14:33:29;6.70;;;1.90;;
53642;SDS011;39546;45.534;12.048;2022-07-05T14:39:31;1.98;;;1.45;;
53642;SDS011;39546;45.534;12.048;2022-07-05T14:45:33;3.75;;;1.80;;
53642;SDS011;39546;45.534;12.048;2022-07-05T14:51:36;4.57;;;1.75;;
53642;SDS011;39546;45.534;12.048;2022-07-05T14:57:38;7.12;;;1.80;;
53642;SDS011;39546;45.534;12.048;2022-07-05T15:03:40;3.20;;;1.23;;
53642;SDS011;39546;45.534;12.048;2022-07-05T15:09:43;4.80;;;2.45;;
53642;SDS011;39546;45.534;12.048;2022-07-05T15:15:46;6.03;;;2.03;;
53642;SDS011;39546;45.534;12.048;2022-07-05T15:22:15;3.00;;;1.70;;
53642;SDS011;39546;45.534;12.048;2022-07-05T15:28:17;6.10;;;1.70;;
53642;SDS011;39546;45.534;12.048;2022-07-05T15:34:20;3.50;;;1.90;;
53642;SDS011;39546;45.534;12.048;2022-07-05T15:40:22;4.00;;;1.73;;
53642;SDS011;39546;45.534;12.048;2022-07-05T15:46:25;3.55;;;2.05;;
53642;SDS011;39546;45.534;12.048;2022-07-05T15:52:30;1.87;;;1.20;;
53642;SDS011;39546;45.534;12.048;2022-07-05T15:58:32;7.28;;;1.67;;
53642;SDS011;39546;45.534;12.048;2022-07-05T16:04:35;6.40;;;1.37;;
53642;SDS011;39546;45.534;12.048;2022-07-05T16:10:37;11.35;;;2.20;;
53642;SDS011;39546;45.534;12.048;2022-07-05T16:16:52;3.72;;;2.03;;
53642;SDS011;39546;45.534;12.048;2022-07-05T16:22:58;4.37;;;1.62;;
53642;SDS011;39546;45.534;12.048;2022-07-05T16:29:00;3.30;;;1.48;;
53642;SDS011;39546;45.534;12.048;2022-07-05T16:35:02;4.05;;;1.52;;
53642;SDS011;39546;45.534;12.048;2022-07-05T16:41:05;2.70;;;1.65;;
53642;SDS011;39546;45.534;12.048;2022-07-05T16:47:08;1.25;;;1.00;;
53642;SDS011;39546;45.534;12.048;2022-07-05T16:53:10;13.43;;;2.35;;
53642;SDS011;39546;45.534;12.048;2022-07-05T16:59:12;7.22;;;1.85;;
53642;SDS011;39546;45.534;12.048;2022-07-05T17:05:15;13.45;;;1.73;;
53642;SDS011;39546;45.534;12.048;2022-07-05T17:11:17;4.07;;;1.33;;
53642;SDS011;39546;45.534;12.048;2022-07-05T17:17:20;9.63;;;1.60;;
53642;SDS011;39546;45.534;12.048;2022-07-05T17:23:23;2.67;;;1.20;;
53642;SDS011;39546;45.534;12.048;2022-07-05T17:29:25;3.30;;;1.10;;
53642;SDS011;39546;45.534;12.048;2022-07-05T17:35:27;1.85;;;0.77;;
53642;SDS011;39546;45.534;12.048;2022-07-05T17:41:30;3.00;;;1.08;;
53642;SDS011;39546;45.534;12.048;2022-07-05T17:47:32;2.37;;;1.10;;
53642;SDS011;39546;45.534;12.048;2022-07-05T17:53:34;1.90;;;0.70;;
53642;SDS011;39546;45.534;12.048;2022-07-05T17:59:36;3.05;;;1.23;;
53642;SDS011;39546;45.534;12.048;2022-07-05T18:05:39;4.40;;;2.03;;
53642;SDS011;39546;45.534;12.048;2022-07-05T18:11:42;5.12;;;1.10;;
53642;SDS011;39546;45.534;12.048;2022-07-05T18:17:45;5.12;;;0.75;;
53642;SDS011;39546;45.534;12.048;2022-07-05T18:23:47;0.82;;;0.73;;
53642;SDS011;39546;45.534;12.048;2022-07-05T18:29:50;1.92;;;0.90;;
53642;SDS011;39546;45.534;12.048;2022-07-05T18:35:53;2.17;;;1.00;;
53642;SDS011;39546;45.534;12.048;2022-07-05T18:41:55;1.27;;;0.82;;
53642;SDS011;39546;45.534;12.048;2022-07-05T18:47:57;3.80;;;0.90;;
53642;SDS011;39546;45.534;12.048;2022-07-05T18:53:59;0.98;;;0.62;;
53642;SDS011;39546;45.534;12.048;2022-07-05T19:00:02;1.70;;;1.10;;
53642;SDS011;39546;45.534;12.048;2022-07-05T19:06:06;3.25;;;1.30;;
53642;SDS011;39546;45.534;12.048;2022-07-05T19:12:27;2.15;;;1.10;;
53642;SDS011;39546;45.534;12.048;2022-07-05T19:18:48;2.22;;;0.98;;
53642;SDS011;39546;45.534;12.048;2022-07-05T19:24:50;1.83;;;1.08;;
53642;SDS011;39546;45.534;12.048;2022-07-05T19:30:54;2.40;;;1.10;;
53642;SDS011;39546;45.534;12.048;2022-07-05T19:36:56;1.52;;;0.75;;
53642;SDS011;39546;45.534;12.048;2022-07-05T19:42:59;3.15;;;0.90;;
53642;SDS011;39546;45.534;12.048;2022-07-05T19:49:01;1.00;;;0.60;;
53642;SDS011;39546;45.534;12.048;2022-07-05T19:55:04;3.50;;;0.43;;
53642;SDS011;39546;45.534;12.048;2022-07-05T20:01:07;1.52;;;1.00;;
53642;SDS011;39546;45.534;12.048;2022-07-05T20:07:09;0.52;;;0.47;;
53642;SDS011;39546;45.534;12.048;2022-07-05T20:13:12;0.28;;;0.28;;
53642;SDS011;39546;45.534;12.048;2022-07-05T20:19:14;0.57;;;0.45;;
53642;SDS011;39546;45.534;12.048;2022-07-05T20:25:17;0.88;;;0.68;;
53642;SDS011;39546;45.534;12.048;2022-07-05T20:31:20;1.27;;;0.73;;
53642;SDS011;39546;45.534;12.048;2022-07-05T20:37:22;1.23;;;0.90;;
53642;SDS011;39546;45.534;12.048;2022-07-05T20:43:24;5.35;;;1.40;;
53642;SDS011;39546;45.534;12.048;2022-07-05T20:49:27;1.23;;;0.45;;
53642;SDS011;39546;45.534;12.048;2022-07-05T20:55:30;0.60;;;0.40;;
53642;SDS011;39546;45.534;12.048;2022-07-05T21:01:32;1.27;;;0.93;;
53642;SDS011;39546;45.534;12.048;2022-07-05T21:07:35;1.00;;;0.60;;
53642;SDS011;39546;45.534;12.048;2022-07-05T21:13:38;1.15;;;0.68;;
53642;SDS011;39546;45.534;12.048;2022-07-05T21:19:41;1.92;;;0.80;;
53642;SDS011;39546;45.534;12.048;2022-07-05T21:25:43;2.17;;;0.93;;
53642;SDS011;39546;45.534;12.048;2022-07-05T21:31:45;0.55;;;0.55;;
53642;SDS011;39546;45.534;12.048;2022-07-05T21:37:47;0.90;;;0.50;;
53642;SDS011;39546;45.534;12.048;2022-07-05T21:43:49;1.42;;;0.43;;
53642;SDS011;39546;45.534;12.048;2022-07-05T21:49:52;0.45;;;0.37;;
53642;SDS011;39546;45.534;12.048;2022-07-05T21:55:54;1.23;;;0.52;;
53642;SDS011;39546;45.534;12.048;2022-07-05T22:01:56;2.12;;;0.82;;
53642;SDS011;39546;45.534;12.048;2022-07-05T22:08:17;1.45;;;0.70;;
53642;SDS011;39546;45.534;12.048;2022-07-05T22:14:20;0.93;;;0.70;;
53642;SDS011;39546;45.534;12.048;2022-07-05T22:20:22;7.35;;;0.90;;
53642;SDS011;39546;45.534;12.048;2022-07-05T22:26:29;2.33;;;1.00;;
53642;SDS011;39546;45.534;12.048;2022-07-05T22:38:59;5.65;;;1.65;;
53642;SDS011;39546;45.534;12.048;2022-07-05T22:45:01;1.62;;;1.10;;
53642;SDS011;39546;45.534;12.048;2022-07-05T22:51:03;1.37;;;0.80;;
53642;SDS011;39546;45.534;12.048;2022-07-05T22:57:05;2.22;;;0.60;;
53642;SDS011;39546;45.534;12.048;2022-07-05T23:03:07;1.15;;;0.62;;
53642;SDS011;39546;45.534;12.048;2022-07-05T23:09:09;2.55;;;1.10;;
53642;SDS011;39546;45.534;12.048;2022-07-05T23:15:12;2.37;;;0.98;;
53642;SDS011;39546;45.534;12.048;2022-07-05T23:21:14;1.25;;;0.88;;
53642;SDS011;39546;45.534;12.048;2022-07-05T23:27:16;1.70;;;0.90;;
53642;SDS011;39546;45.534;12.048;2022-07-05T23:33:18;2.97;;;1.45;;
53642;SDS011;39546;45.534;12.048;2022-07-05T23:39:21;1.33;;;1.02;;
53642;SDS011;39546;45.534;12.048;2022-07-05T23:45:23;4.03;;;0.98;;
53642;SDS011;39546;45.534;12.048;2022-07-05T23:51:25;5.25;;;1.70;;
53642;SDS011;39546;45.534;12.048;2022-07-05T23:57:40;3.20;;;0.70;;
